createdAt,value
2018-07-22T00:01:05.444Z,16.33
2018-07-22T00:03:33.752Z,16.47
2018-07-22T00:06:02.164Z,16.50
2018-07-22T00:08:30.661Z,15.50
2018-07-22T00:10:59.035Z,15.23
2018-07-22T00:13:30.488Z,16.30
2018-07-22T00:15:58.815Z,15.90
2018-07-22T00:18:27.298Z,15.03
2018-07-22T00:20:58.714Z,15.53
2018-07-22T00:23:27.354Z,16.53
2018-07-22T00:25:55.677Z,16.30
2018-07-22T00:28:23.804Z,15.17
2018-07-22T00:30:52.172Z,16.03
2018-07-22T00:33:20.532Z,15.83
2018-07-22T00:35:48.888Z,16.37
2018-07-22T00:38:17.440Z,16.23
2018-07-22T00:40:45.751Z,15.37
2018-07-22T00:43:14.239Z,15.67
2018-07-22T00:45:42.572Z,16.07
2018-07-22T00:48:10.972Z,15.23
2018-07-22T00:50:39.371Z,15.80
2018-07-22T00:53:07.714Z,15.23
2018-07-22T00:55:36.068Z,14.63
2018-07-22T00:58:05.402Z,14.00
2018-07-22T01:00:33.734Z,14.57
2018-07-22T01:03:02.070Z,14.17
2018-07-22T01:05:30.471Z,14.47
2018-07-22T01:07:58.867Z,14.33
2018-07-22T01:10:27.119Z,14.87
2018-07-22T01:12:55.941Z,13.77
2018-07-22T01:15:24.364Z,13.17
2018-07-22T01:17:52.734Z,13.13
2018-07-22T01:20:21.074Z,13.47
2018-07-22T01:22:49.375Z,13.57
2018-07-22T01:25:17.728Z,12.97
2018-07-22T01:27:46.049Z,13.03
2018-07-22T01:30:14.394Z,12.90
2018-07-22T01:32:42.763Z,12.80
2018-07-22T01:35:11.337Z,12.73
2018-07-22T01:37:39.754Z,13.17
2018-07-22T01:40:08.521Z,12.50
2018-07-22T01:42:36.912Z,13.80
2018-07-22T01:45:05.260Z,13.10
2018-07-22T01:47:33.592Z,12.43
2018-07-22T01:50:03.051Z,13.13
2018-07-22T01:52:31.382Z,14.10
2018-07-22T01:54:59.751Z,14.60
2018-07-22T01:57:28.762Z,15.05
2018-07-22T01:59:57.098Z,15.00
2018-07-22T02:02:25.481Z,15.87
2018-07-22T02:04:53.824Z,15.70
2018-07-22T02:07:22.348Z,16.13
2018-07-22T02:09:50.707Z,17.47
2018-07-22T02:12:20.058Z,17.07
2018-07-22T02:14:48.385Z,17.57
2018-07-22T02:17:16.770Z,17.63
2018-07-22T02:19:45.473Z,17.53
2018-07-22T02:22:13.807Z,18.60
2018-07-22T02:24:42.357Z,17.10
2018-07-22T02:27:10.760Z,17.90
2018-07-22T02:29:39.119Z,19.87
2018-07-22T02:32:10.844Z,17.80
2018-07-22T02:34:39.336Z,19.73
2018-07-22T02:37:07.674Z,18.97
2018-07-22T02:39:36.021Z,18.37
2018-07-22T02:42:04.383Z,19.83
2018-07-22T02:44:32.763Z,17.77
2018-07-22T02:47:01.077Z,18.43
2018-07-22T02:49:29.441Z,18.37
2018-07-22T02:51:57.784Z,17.80
2018-07-22T02:54:26.276Z,17.53
2018-07-22T02:56:54.627Z,18.10
2018-07-22T02:59:23.004Z,18.43
2018-07-22T03:01:51.494Z,19.47
2018-07-22T03:04:19.827Z,17.17
2018-07-22T03:06:48.326Z,17.33
2018-07-22T03:09:16.671Z,14.10
2018-07-22T03:11:45.015Z,12.80
2018-07-22T03:14:13.481Z,13.03
2018-07-22T03:16:41.805Z,11.87
2018-07-22T03:19:10.335Z,10.13
2018-07-22T03:21:38.664Z,9.00
2018-07-22T03:24:07.451Z,7.73
2018-07-22T03:26:35.780Z,7.50
2018-07-22T03:29:04.094Z,6.70
2018-07-22T03:31:32.466Z,8.27
2018-07-22T03:34:01.359Z,9.33
2018-07-22T03:36:30.406Z,10.00
2018-07-22T03:38:59.110Z,11.07
2018-07-22T03:41:27.489Z,15.83
2018-07-22T03:43:55.824Z,16.13
2018-07-22T03:46:24.170Z,17.47
2018-07-22T03:48:52.566Z,18.03
2018-07-22T03:51:20.889Z,18.40
2018-07-22T03:53:49.211Z,20.47
2018-07-22T03:56:17.506Z,19.77
2018-07-22T03:58:45.885Z,21.00
2018-07-22T04:01:14.439Z,20.13
2018-07-22T04:03:42.766Z,19.87
2018-07-22T04:06:11.073Z,19.13
2018-07-22T04:08:39.472Z,18.13
2018-07-22T04:11:08.100Z,20.27
2018-07-22T04:13:36.666Z,20.70
2018-07-22T04:16:05.097Z,19.63
2018-07-22T04:18:37.776Z,18.70
2018-07-22T04:21:06.106Z,19.27
2018-07-22T04:23:34.491Z,20.40
2018-07-22T04:26:03.827Z,20.30
2018-07-22T04:28:32.433Z,19.47
2018-07-22T04:31:00.796Z,20.20
2018-07-22T04:33:29.335Z,19.57
2018-07-22T04:35:57.705Z,19.37
2018-07-22T04:38:26.123Z,19.50
2018-07-22T04:40:55.024Z,18.97
2018-07-22T04:43:23.544Z,19.73
2018-07-22T04:45:55.542Z,19.57
2018-07-22T04:48:23.942Z,18.13
2018-07-22T04:50:52.047Z,19.00
2018-07-22T04:53:20.450Z,18.63
2018-07-22T04:55:49.509Z,18.43
2018-07-22T04:58:17.930Z,17.57
2018-07-22T05:00:46.592Z,17.47
2018-07-22T05:03:15.756Z,18.57
2018-07-22T05:05:47.594Z,17.57
2018-07-22T05:08:15.918Z,15.63
2018-07-22T05:10:44.446Z,17.60
2018-07-22T05:13:12.884Z,15.87
2018-07-22T05:15:41.470Z,16.30
2018-07-22T05:18:09.803Z,17.37
2018-07-22T05:20:38.165Z,14.80
2018-07-22T05:23:06.583Z,13.07
2018-07-22T05:25:34.915Z,12.77
2018-07-22T05:28:03.704Z,10.40
2018-07-22T05:30:32.304Z,11.03
2018-07-22T05:33:00.666Z,11.93
2018-07-22T05:35:29.036Z,9.80
2018-07-22T05:37:57.532Z,11.23
2018-07-22T05:40:26.190Z,11.90
2018-07-22T05:42:54.549Z,12.57
2018-07-22T05:45:22.952Z,13.70
2018-07-22T05:47:51.629Z,14.30
2018-07-22T05:50:19.979Z,15.53
2018-07-22T05:52:48.620Z,14.03
2018-07-22T05:55:18.117Z,16.40
2018-07-22T05:57:46.443Z,14.97
2018-07-22T06:00:14.791Z,14.30
2018-07-22T06:02:43.107Z,15.47
2018-07-22T06:05:11.536Z,15.13
2018-07-22T06:07:39.888Z,13.60
2018-07-22T06:10:08.364Z,14.30
2018-07-22T06:12:36.738Z,13.57
2018-07-22T06:15:06.788Z,14.17
2018-07-22T06:17:35.147Z,15.03
2018-07-22T06:20:05.329Z,14.33
2018-07-22T06:22:33.712Z,13.83
2018-07-22T06:25:02.138Z,13.23
2018-07-22T06:27:30.573Z,13.50
2018-07-22T06:29:59.064Z,14.00
2018-07-22T06:32:27.583Z,11.57
2018-07-22T06:34:56.171Z,10.50
2018-07-22T06:37:24.509Z,8.40
2018-07-22T06:39:52.887Z,7.77
2018-07-22T06:42:27.009Z,7.23
2018-07-22T06:44:55.397Z,5.80
2018-07-22T06:47:24.079Z,6.83
2018-07-22T06:49:52.681Z,7.13
2018-07-22T06:52:21.265Z,8.20
2018-07-22T06:54:49.613Z,7.13
2018-07-22T06:57:17.686Z,6.70
2018-07-22T06:59:46.474Z,7.07
2018-07-22T07:02:14.858Z,8.67
2018-07-22T07:04:43.852Z,7.70
2018-07-22T07:07:12.261Z,7.87
2018-07-22T07:09:40.668Z,9.00
2018-07-22T07:12:10.040Z,8.67
2018-07-22T07:14:38.756Z,8.27
2018-07-22T07:17:07.124Z,8.70
2018-07-22T07:19:35.916Z,9.37
2018-07-22T07:22:04.557Z,9.30
2018-07-22T07:24:32.939Z,10.07
2018-07-22T07:27:01.717Z,10.23
2018-07-22T07:29:31.009Z,11.03
2018-07-22T07:31:59.377Z,10.07
2018-07-22T07:34:27.792Z,9.47
2018-07-22T07:36:56.581Z,13.80
2018-07-22T07:39:25.045Z,10.40
2018-07-22T07:41:55.336Z,9.97
2018-07-22T07:44:23.813Z,10.53
2018-07-22T07:46:52.173Z,10.93
2018-07-22T07:49:21.213Z,11.83
2018-07-22T07:51:50.374Z,11.43
2018-07-22T07:54:18.750Z,12.80
2018-07-22T07:56:47.142Z,12.20
2018-07-22T07:59:15.749Z,12.80
2018-07-22T08:01:44.167Z,12.90
2018-07-22T08:13:57.940Z,13.40
2018-07-22T08:16:26.469Z,10.80
2018-07-22T08:18:56.440Z,9.97
2018-07-22T08:21:24.117Z,10.53
2018-07-22T08:23:52.985Z,11.37
2018-07-22T08:26:21.730Z,11.40
2018-07-22T08:29:01.489Z,13.10
2018-07-22T08:31:29.982Z,14.40
2018-07-22T08:33:58.649Z,12.73
2018-07-22T08:36:27.064Z,11.57
2018-07-22T08:38:55.430Z,13.83
2018-07-22T08:41:23.884Z,12.40
2018-07-22T08:43:53.258Z,14.00
2018-07-22T08:46:21.591Z,12.17
2018-07-22T08:48:50.000Z,11.13
2018-07-22T08:51:19.487Z,11.50
2018-07-22T08:53:48.225Z,13.13
2018-07-22T08:56:16.620Z,12.80
2018-07-22T08:58:45.017Z,10.87
2018-07-22T09:01:13.607Z,11.33
2018-07-22T09:03:42.056Z,11.20
2018-07-22T09:06:10.653Z,13.27
2018-07-22T09:08:39.460Z,13.47
2018-07-22T09:11:08.511Z,13.20
2018-07-22T09:13:36.862Z,13.27
2018-07-22T09:16:05.266Z,13.80
2018-07-22T09:18:33.766Z,13.97
2018-07-22T09:21:02.492Z,12.97
2018-07-22T09:23:30.960Z,13.33
2018-07-22T09:25:59.715Z,13.67
2018-07-22T09:28:28.069Z,14.03
2018-07-22T09:30:56.873Z,13.07
2018-07-22T09:33:25.248Z,12.85
2018-07-22T09:35:53.945Z,13.20
2018-07-22T09:38:23.119Z,12.87
2018-07-22T09:40:52.414Z,13.00
2018-07-22T09:43:20.920Z,15.33
2018-07-22T09:46:08.661Z,14.80
2018-07-22T09:48:52.026Z,15.27
2018-07-22T09:51:27.734Z,15.05
2018-07-22T09:53:56.672Z,13.87
2018-07-22T09:56:27.134Z,15.87
2018-07-22T09:58:55.612Z,15.73
2018-07-22T10:01:24.062Z,20.17
2018-07-22T10:03:52.626Z,15.93
2018-07-22T10:06:22.438Z,15.77
2018-07-22T10:08:50.837Z,13.60
2018-07-22T10:11:19.293Z,15.63
2018-07-22T10:13:47.793Z,15.17
2018-07-22T10:16:16.235Z,14.80
2018-07-22T10:18:44.611Z,15.00
2018-07-22T10:21:13.021Z,14.33
2018-07-22T10:23:41.609Z,14.57
2018-07-22T10:26:12.146Z,15.70
2018-07-22T10:28:50.880Z,17.17
2018-07-22T10:31:34.390Z,19.10
2018-07-22T10:34:13.613Z,19.53
2018-07-22T10:36:42.357Z,17.97
2018-07-22T10:39:11.673Z,18.40
2018-07-22T10:41:40.199Z,19.17
2018-07-22T10:44:09.223Z,19.63
2018-07-22T10:46:37.718Z,17.53
2018-07-22T10:49:06.444Z,15.10
2018-07-22T10:51:34.920Z,12.83
2018-07-22T10:54:03.617Z,14.53
2018-07-22T10:56:36.493Z,13.03
2018-07-22T10:59:05.113Z,13.67
2018-07-22T11:01:34.218Z,11.80
2018-07-22T11:04:03.037Z,11.40
2018-07-22T11:06:32.256Z,11.43
2018-07-22T11:09:00.844Z,11.43
2018-07-22T11:11:29.504Z,12.67
2018-07-22T11:13:58.462Z,12.53
2018-07-22T11:16:27.968Z,15.10
2018-07-22T11:18:58.042Z,15.77
2018-07-22T11:21:28.403Z,15.25
2018-07-22T11:23:57.180Z,14.80
2018-07-22T11:26:26.123Z,14.57
2018-07-22T11:28:55.352Z,14.50
2018-07-22T11:31:24.318Z,13.07
2018-07-22T11:33:53.104Z,14.27
2018-07-22T11:36:22.054Z,12.97
2018-07-22T11:38:51.013Z,13.57
2018-07-22T11:41:19.675Z,14.00
2018-07-22T11:43:48.421Z,13.33
2018-07-22T11:46:17.380Z,13.87
2018-07-22T11:48:45.956Z,14.53
2018-07-22T11:51:14.561Z,14.93
2018-07-22T11:53:43.530Z,14.40
2018-07-22T11:56:12.123Z,15.03
2018-07-22T11:58:41.392Z,13.83
2018-07-22T12:01:10.286Z,13.93
2018-07-22T12:03:38.960Z,13.50
2018-07-22T12:06:07.616Z,13.97
2018-07-22T12:08:36.325Z,13.27
2018-07-22T12:11:05.104Z,14.30
2018-07-22T12:13:36.642Z,14.93
2018-07-22T12:16:05.364Z,14.90
2018-07-22T12:18:34.136Z,13.67
2018-07-22T12:21:02.723Z,11.57
2018-07-22T12:23:31.253Z,12.57
2018-07-22T12:25:59.987Z,12.63
2018-07-22T12:28:28.551Z,13.60
2018-07-22T12:30:57.122Z,13.00
2018-07-22T12:33:26.324Z,13.80
2018-07-22T12:35:54.982Z,12.57
2018-07-22T12:38:23.594Z,10.50
2018-07-22T12:40:53.269Z,13.23
2018-07-22T12:43:21.918Z,12.40
2018-07-22T12:45:50.533Z,13.53
2018-07-22T12:48:19.059Z,13.20
2018-07-22T12:50:47.899Z,12.80
2018-07-22T12:53:17.566Z,12.03
2018-07-22T12:55:46.817Z,11.67
2018-07-22T12:58:16.405Z,13.27
2018-07-22T13:00:54.855Z,11.90
2018-07-22T13:03:24.327Z,11.67
2018-07-22T13:05:53.447Z,11.20
2018-07-22T13:08:22.161Z,10.57
2018-07-22T13:10:51.304Z,10.87
2018-07-22T13:13:20.159Z,10.03
2018-07-22T13:15:49.157Z,10.47
2018-07-22T13:18:17.989Z,9.10
2018-07-22T13:20:47.339Z,9.27
2018-07-22T13:23:16.549Z,9.00
2018-07-22T13:25:45.609Z,9.20
2018-07-22T13:28:14.198Z,8.23
2018-07-22T13:30:43.054Z,8.10
2018-07-22T13:33:12.606Z,8.30
2018-07-22T13:35:41.614Z,8.90
2018-07-22T13:38:10.657Z,8.60
2018-07-22T13:40:39.364Z,8.23
2018-07-22T13:43:08.672Z,8.37
2018-07-22T13:45:40.665Z,9.30
2018-07-22T13:48:09.990Z,9.37
2018-07-22T13:50:38.647Z,11.03
2018-07-22T13:53:07.553Z,10.77
2018-07-22T13:55:36.320Z,10.90
2018-07-22T13:58:06.826Z,11.83
2018-07-22T14:00:35.610Z,10.57
2018-07-22T14:03:04.617Z,12.70
2018-07-22T14:05:33.304Z,12.17
2018-07-22T14:08:02.756Z,12.10
2018-07-22T14:10:31.442Z,12.70
2018-07-22T14:13:00.488Z,11.87
2018-07-22T14:15:29.445Z,11.37
2018-07-22T14:17:58.217Z,11.93
2018-07-22T14:20:27.282Z,13.53
2018-07-22T14:22:56.742Z,11.93
2018-07-22T14:25:25.440Z,11.27
2018-07-22T14:27:54.559Z,11.80
2018-07-22T14:30:23.488Z,13.03
2018-07-22T14:32:52.469Z,14.13
2018-07-22T14:35:21.558Z,12.30
2018-07-22T14:37:50.096Z,13.03
2018-07-22T14:40:18.776Z,11.63
2018-07-22T14:42:49.446Z,15.37
2018-07-22T14:45:18.435Z,12.90
2018-07-22T14:47:47.718Z,14.57
2018-07-22T14:50:17.961Z,14.33
2018-07-22T14:52:46.813Z,14.30
2018-07-22T14:55:15.538Z,12.80
2018-07-22T14:57:44.100Z,12.60
2018-07-22T15:00:13.000Z,13.33
2018-07-22T15:02:42.404Z,13.07
2018-07-22T15:05:11.289Z,13.03
2018-07-22T15:07:41.210Z,12.07
2018-07-22T15:10:10.332Z,13.27
2018-07-22T15:12:39.603Z,13.40
2018-07-22T15:15:08.247Z,30.87
2018-07-22T15:17:37.901Z,12.57
2018-07-22T15:20:08.370Z,13.37
2018-07-22T15:22:37.150Z,12.73
2018-07-22T15:25:06.748Z,10.30
2018-07-22T15:27:36.319Z,9.83
2018-07-22T15:30:05.924Z,10.63
2018-07-22T15:32:34.757Z,11.93
2018-07-22T15:35:04.378Z,11.33
2018-07-22T15:37:33.154Z,12.07
2018-07-22T15:40:03.494Z,11.23
2018-07-22T15:42:32.062Z,11.13
2018-07-22T15:45:00.650Z,10.27
2018-07-22T15:47:29.703Z,10.07
2018-07-22T15:49:59.485Z,10.57
2018-07-22T15:52:28.005Z,11.00
2018-07-22T15:54:56.859Z,10.37
2018-07-22T15:57:25.844Z,11.07
2018-07-22T16:00:09.333Z,11.00
2018-07-22T16:02:38.865Z,12.07
2018-07-22T16:05:07.429Z,12.13
2018-07-22T16:07:38.491Z,12.60
2018-07-22T16:10:07.069Z,11.87
2018-07-22T16:12:35.887Z,11.60
2018-07-22T16:15:05.367Z,10.93
2018-07-22T16:17:34.290Z,11.20
2018-07-22T16:20:03.188Z,10.83
2018-07-22T16:22:32.657Z,11.33
2018-07-22T16:25:01.369Z,10.53
2018-07-22T16:27:31.404Z,10.27
2018-07-22T16:30:00.061Z,9.63
2018-07-22T16:32:29.908Z,9.07
2018-07-22T16:35:15.050Z,10.03
2018-07-22T16:37:45.792Z,9.70
2018-07-22T16:40:14.885Z,11.70
2018-07-22T16:42:44.073Z,9.70
2018-07-22T16:45:12.707Z,9.37
2018-07-22T16:47:41.252Z,9.40
2018-07-22T16:50:10.463Z,9.63
2018-07-22T16:52:39.169Z,10.70
2018-07-22T16:55:08.705Z,9.57
2018-07-22T16:57:37.159Z,9.60
2018-07-22T17:00:05.912Z,10.50
2018-07-22T17:02:48.950Z,13.50
2018-07-22T17:05:18.959Z,9.83
2018-07-22T17:07:48.711Z,14.17
2018-07-22T17:10:18.031Z,9.73
2018-07-22T17:12:47.699Z,10.30
2018-07-22T17:15:17.157Z,9.97
2018-07-22T17:17:46.310Z,10.53
2018-07-22T17:20:16.569Z,10.60
2018-07-22T17:22:48.727Z,10.73
2018-07-22T17:25:17.297Z,11.30
2018-07-22T17:27:46.794Z,10.53
2018-07-22T17:30:15.603Z,14.77
2018-07-22T17:32:44.518Z,12.67
2018-07-22T17:35:13.293Z,13.23
2018-07-22T17:37:42.202Z,15.60
2018-07-22T17:40:11.307Z,12.83
2018-07-22T17:42:40.465Z,12.23
2018-07-22T17:45:09.244Z,12.47
2018-07-22T17:47:38.245Z,12.50
2018-07-22T17:50:07.312Z,13.07
2018-07-22T17:52:36.834Z,13.43
2018-07-22T17:55:07.040Z,12.97
2018-07-22T17:57:35.968Z,13.47
2018-07-22T18:00:04.724Z,12.93
2018-07-22T18:02:34.201Z,13.63
2018-07-22T18:05:03.265Z,11.63
2018-07-22T18:07:31.904Z,11.77
2018-07-22T18:10:00.886Z,10.27
2018-07-22T18:12:29.934Z,10.83
2018-07-22T18:14:59.149Z,10.40
2018-07-22T18:17:29.067Z,12.67
2018-07-22T18:19:57.853Z,11.80
2018-07-22T18:22:27.099Z,12.27
2018-07-22T18:24:56.247Z,16.87
2018-07-22T18:27:26.306Z,14.90
2018-07-22T18:29:55.037Z,11.40
2018-07-22T18:32:23.837Z,11.47
2018-07-22T18:34:52.667Z,12.77
2018-07-22T18:37:21.881Z,11.70
2018-07-22T18:39:51.253Z,13.10
2018-07-22T18:42:21.118Z,13.30
2018-07-22T18:44:50.418Z,12.27
2018-07-22T18:47:19.578Z,14.03
2018-07-22T18:49:48.951Z,12.60
2018-07-22T18:52:18.382Z,12.70
2018-07-22T18:54:47.436Z,12.57
2018-07-22T18:57:16.323Z,12.53
2018-07-22T18:59:45.520Z,13.17
2018-07-22T19:02:14.909Z,12.73
2018-07-22T19:04:51.604Z,13.20
2018-07-22T19:10:41.645Z,14.07
2018-07-22T19:13:10.627Z,13.10
2018-07-22T19:15:39.485Z,15.00
2018-07-22T19:18:08.436Z,12.77
2018-07-22T19:20:37.465Z,12.23
2018-07-22T19:23:06.881Z,13.00
2018-07-22T19:25:36.097Z,12.90
2018-07-22T19:28:04.778Z,13.47
2018-07-22T19:30:33.733Z,18.47
2018-07-22T19:33:03.353Z,14.23
2018-07-22T19:35:33.295Z,16.90
2018-07-22T19:38:02.367Z,15.87
2018-07-22T19:40:32.077Z,15.03
2018-07-22T19:43:43.661Z,14.43
2018-07-22T19:46:12.104Z,13.73
2018-07-22T19:48:44.227Z,14.17
2018-07-22T19:51:15.567Z,16.77
2018-07-22T19:53:57.218Z,21.30
2018-07-22T19:57:06.245Z,27.60
2018-07-22T19:59:41.224Z,13.97
2018-07-22T20:02:37.286Z,19.70
2018-07-22T20:05:07.868Z,14.53
2018-07-22T20:07:37.488Z,16.63
2018-07-22T20:10:11.316Z,13.97
2018-07-22T20:12:50.642Z,13.50
2018-07-22T20:15:21.627Z,13.57
2018-07-22T20:17:58.887Z,13.07
2018-07-22T20:20:29.690Z,12.20
2018-07-22T20:23:03.341Z,11.53
2018-07-22T20:25:35.194Z,11.33
2018-07-22T20:28:07.906Z,11.77
2018-07-22T20:30:36.932Z,12.47
2018-07-22T20:33:05.846Z,13.67
2018-07-22T20:35:34.748Z,13.97
2018-07-22T20:38:03.344Z,13.67
2018-07-22T20:40:32.333Z,20.30
2018-07-22T20:43:01.481Z,15.13
2018-07-22T20:45:30.501Z,13.57
2018-07-22T20:47:59.939Z,14.20
2018-07-22T20:50:29.015Z,15.47
2018-07-22T20:52:58.929Z,14.23
2018-07-22T20:55:42.429Z,36.80
2018-07-22T20:58:11.199Z,28.30
2018-07-22T21:00:39.869Z,16.50
2018-07-22T21:03:08.735Z,15.33
2018-07-22T21:05:40.305Z,16.27
2018-07-22T21:08:09.279Z,14.80
2018-07-22T21:10:40.067Z,14.87
2018-07-22T21:13:27.058Z,14.50
2018-07-22T21:15:56.300Z,15.33
2018-07-22T21:18:26.904Z,15.80
2018-07-22T21:20:56.001Z,14.73
2018-07-22T21:23:25.630Z,16.97
2018-07-22T21:25:55.109Z,16.67
2018-07-22T21:28:23.864Z,16.07
2018-07-22T21:30:52.628Z,17.97
2018-07-22T21:33:21.218Z,18.03
2018-07-22T21:35:49.769Z,17.40
2018-07-22T21:38:18.347Z,18.97
2018-07-22T21:40:47.509Z,19.03
2018-07-22T21:43:16.336Z,18.97
2018-07-22T21:45:46.155Z,19.13
2018-07-22T21:48:14.885Z,19.90
2018-07-22T21:50:45.449Z,20.37
2018-07-22T21:53:14.279Z,20.73
2018-07-22T21:55:43.145Z,20.03
2018-07-22T21:58:11.689Z,20.33
2018-07-22T22:00:45.175Z,20.67
2018-07-22T22:03:14.117Z,20.97
2018-07-22T22:05:42.605Z,21.27
2018-07-22T22:08:11.544Z,20.67
2018-07-22T22:10:40.260Z,21.77
2018-07-22T22:13:08.841Z,19.70
2018-07-22T22:15:37.496Z,20.60
2018-07-22T22:18:06.066Z,21.03
2018-07-22T22:20:34.794Z,19.80
2018-07-22T22:23:04.766Z,20.30
2018-07-22T22:25:33.156Z,20.27
2018-07-22T22:28:01.508Z,21.70
2018-07-22T22:30:29.877Z,20.23
2018-07-22T22:32:58.291Z,20.73
2018-07-22T22:35:26.651Z,21.00
2018-07-22T22:37:55.029Z,21.60
2018-07-22T22:40:23.367Z,20.97
2018-07-22T22:42:52.083Z,20.17
2018-07-22T22:45:22.080Z,21.47
2018-07-22T22:47:50.406Z,20.47
2018-07-22T22:50:18.808Z,20.20
2018-07-22T22:52:47.124Z,21.43
2018-07-22T22:55:15.464Z,20.63
2018-07-22T22:57:55.432Z,20.33
2018-07-22T23:00:24.001Z,19.27
2018-07-22T23:02:52.337Z,18.83
2018-07-22T23:05:20.701Z,18.33
2018-07-22T23:07:49.163Z,20.60
2018-07-22T23:10:17.590Z,19.87
2018-07-22T23:12:46.094Z,19.30
2018-07-22T23:15:14.468Z,21.13
2018-07-22T23:17:43.006Z,19.50
2018-07-22T23:20:11.338Z,20.87
2018-07-22T23:22:39.700Z,21.47
2018-07-22T23:25:08.100Z,22.23
2018-07-22T23:27:36.464Z,21.23
2018-07-22T23:30:04.840Z,23.03
2018-07-22T23:32:33.183Z,23.67
2018-07-22T23:35:01.546Z,24.67
2018-07-22T23:37:30.059Z,23.00
2018-07-22T23:39:58.424Z,22.47
2018-07-22T23:42:26.928Z,23.23
2018-07-22T23:44:55.287Z,23.20
2018-07-22T23:47:25.013Z,24.77
2018-07-22T23:49:53.391Z,22.60
2018-07-22T23:52:21.770Z,22.40
2018-07-22T23:54:50.880Z,22.13
2018-07-22T23:57:19.237Z,21.80
2018-07-22T23:59:47.603Z,20.27
